sensor_id;sensor_type;location;lat;lon;timestamp;P1;durP1;ratioP1;P2;durP2;ratioP2
53299;SDS011;39187;48.476;8.310;2024-02-28T00:01:48;52.20;;;27.23;;
53299;SDS011;39187;48.476;8.310;2024-02-28T00:04:14;37.63;;;23.90;;
53299;SDS011;39187;48.476;8.310;2024-02-28T00:06:40;40.30;;;24.30;;
53299;SDS011;39187;48.476;8.310;2024-02-28T00:09:05;36.80;;;24.50;;
53299;SDS011;39187;48.476;8.310;2024-02-28T00:11:31;44.10;;;25.37;;
53299;SDS011;39187;48.476;8.310;2024-02-28T00:13:57;44.03;;;24.57;;
53299;SDS011;39187;48.476;8.310;2024-02-28T00:16:25;45.37;;;26.20;;
53299;SDS011;39187;48.476;8.310;2024-02-28T00:18:50;49.37;;;24.80;;
53299;SDS011;39187;48.476;8.310;2024-02-28T00:21:16;44.53;;;24.30;;
53299;SDS011;39187;48.476;8.310;2024-02-28T00:23:42;38.43;;;24.77;;
53299;SDS011;39187;48.476;8.310;2024-02-28T00:26:07;37.83;;;22.73;;
53299;SDS011;39187;48.476;8.310;2024-02-28T00:28:33;33.00;;;21.17;;
53299;SDS011;39187;48.476;8.310;2024-02-28T00:30:58;36.53;;;23.70;;
53299;SDS011;39187;48.476;8.310;2024-02-28T00:33:23;39.40;;;22.90;;
53299;SDS011;39187;48.476;8.310;2024-02-28T00:35:49;32.30;;;21.13;;
53299;SDS011;39187;48.476;8.310;2024-02-28T00:38:14;34.57;;;21.73;;
53299;SDS011;39187;48.476;8.310;2024-02-28T00:40:40;29.00;;;19.80;;
53299;SDS011;39187;48.476;8.310;2024-02-28T00:43:05;29.90;;;20.77;;
53299;SDS011;39187;48.476;8.310;2024-02-28T00:45:31;30.47;;;20.20;;
53299;SDS011;39187;48.476;8.310;2024-02-28T00:47:56;22.80;;;17.13;;
53299;SDS011;39187;48.476;8.310;2024-02-28T00:50:22;31.90;;;19.00;;
53299;SDS011;39187;48.476;8.310;2024-02-28T00:52:47;22.50;;;16.40;;
53299;SDS011;39187;48.476;8.310;2024-02-28T00:55:13;22.00;;;17.43;;
53299;SDS011;39187;48.476;8.310;2024-02-28T00:57:38;23.63;;;17.10;;
53299;SDS011;39187;48.476;8.310;2024-02-28T01:00:04;27.10;;;17.50;;
53299;SDS011;39187;48.476;8.310;2024-02-28T01:02:31;24.47;;;17.60;;
53299;SDS011;39187;48.476;8.310;2024-02-28T01:04:57;30.37;;;17.33;;
53299;SDS011;39187;48.476;8.310;2024-02-28T01:07:22;28.63;;;18.07;;
53299;SDS011;39187;48.476;8.310;2024-02-28T01:09:48;25.07;;;18.50;;
53299;SDS011;39187;48.476;8.310;2024-02-28T01:12:13;24.50;;;17.87;;
53299;SDS011;39187;48.476;8.310;2024-02-28T01:14:39;27.50;;;18.53;;
53299;SDS011;39187;48.476;8.310;2024-02-28T01:17:04;24.60;;;18.50;;
53299;SDS011;39187;48.476;8.310;2024-02-28T01:19:30;23.73;;;18.07;;
53299;SDS011;39187;48.476;8.310;2024-02-28T01:21:56;23.80;;;17.40;;
53299;SDS011;39187;48.476;8.310;2024-02-28T01:24:22;27.77;;;17.53;;
53299;SDS011;39187;48.476;8.310;2024-02-28T01:26:48;23.77;;;17.20;;
53299;SDS011;39187;48.476;8.310;2024-02-28T01:29:13;25.73;;;18.77;;
53299;SDS011;39187;48.476;8.310;2024-02-28T01:31:39;25.83;;;17.83;;
53299;SDS011;39187;48.476;8.310;2024-02-28T01:34:04;21.30;;;16.03;;
53299;SDS011;39187;48.476;8.310;2024-02-28T01:36:30;23.50;;;18.77;;
53299;SDS011;39187;48.476;8.310;2024-02-28T01:38:55;27.17;;;18.33;;
53299;SDS011;39187;48.476;8.310;2024-02-28T01:41:21;22.90;;;17.13;;
53299;SDS011;39187;48.476;8.310;2024-02-28T01:43:46;32.67;;;19.03;;
53299;SDS011;39187;48.476;8.310;2024-02-28T01:46:25;25.43;;;18.47;;
53299;SDS011;39187;48.476;8.310;2024-02-28T01:48:55;21.50;;;16.57;;
53299;SDS011;39187;48.476;8.310;2024-02-28T01:51:24;26.50;;;18.57;;
53299;SDS011;39187;48.476;8.310;2024-02-28T01:53:52;24.70;;;18.20;;
53299;SDS011;39187;48.476;8.310;2024-02-28T01:56:19;27.87;;;18.17;;
53299;SDS011;39187;48.476;8.310;2024-02-28T01:58:46;30.60;;;19.30;;
53299;SDS011;39187;48.476;8.310;2024-02-28T02:01:15;28.10;;;18.10;;
53299;SDS011;39187;48.476;8.310;2024-02-28T02:03:44;24.37;;;18.40;;
53299;SDS011;39187;48.476;8.310;2024-02-28T02:06:10;31.63;;;18.40;;
53299;SDS011;39187;48.476;8.310;2024-02-28T02:08:36;25.73;;;18.10;;
53299;SDS011;39187;48.476;8.310;2024-02-28T02:11:03;23.37;;;17.33;;
53299;SDS011;39187;48.476;8.310;2024-02-28T02:13:29;23.40;;;15.70;;
53299;SDS011;39187;48.476;8.310;2024-02-28T02:15:54;25.37;;;17.20;;
53299;SDS011;39187;48.476;8.310;2024-02-28T02:18:20;26.63;;;18.37;;
53299;SDS011;39187;48.476;8.310;2024-02-28T02:20:46;23.03;;;16.60;;
53299;SDS011;39187;48.476;8.310;2024-02-28T02:23:23;20.10;;;16.63;;
53299;SDS011;39187;48.476;8.310;2024-02-28T02:25:49;30.10;;;17.97;;
53299;SDS011;39187;48.476;8.310;2024-02-28T02:28:14;25.67;;;17.00;;
53299;SDS011;39187;48.476;8.310;2024-02-28T02:30:40;21.33;;;17.07;;
53299;SDS011;39187;48.476;8.310;2024-02-28T02:33:10;25.73;;;15.83;;
53299;SDS011;39187;48.476;8.310;2024-02-28T02:35:36;32.80;;;17.40;;
53299;SDS011;39187;48.476;8.310;2024-02-28T02:38:01;24.90;;;17.70;;
53299;SDS011;39187;48.476;8.310;2024-02-28T02:40:27;28.37;;;16.80;;
53299;SDS011;39187;48.476;8.310;2024-02-28T02:42:52;29.70;;;18.20;;
53299;SDS011;39187;48.476;8.310;2024-02-28T02:45:18;23.13;;;17.70;;
53299;SDS011;39187;48.476;8.310;2024-02-28T02:47:43;24.03;;;17.37;;
53299;SDS011;39187;48.476;8.310;2024-02-28T02:50:09;24.27;;;18.07;;
53299;SDS011;39187;48.476;8.310;2024-02-28T02:52:35;20.00;;;16.57;;
53299;SDS011;39187;48.476;8.310;2024-02-28T02:55:01;28.07;;;18.70;;
53299;SDS011;39187;48.476;8.310;2024-02-28T02:57:27;28.90;;;19.40;;
53299;SDS011;39187;48.476;8.310;2024-02-28T02:59:52;29.07;;;19.13;;
53299;SDS011;39187;48.476;8.310;2024-02-28T03:02:18;25.90;;;17.90;;
53299;SDS011;39187;48.476;8.310;2024-02-28T03:04:43;30.20;;;18.83;;
53299;SDS011;39187;48.476;8.310;2024-02-28T03:07:09;29.00;;;18.77;;
53299;SDS011;39187;48.476;8.310;2024-02-28T03:09:34;27.83;;;18.10;;
53299;SDS011;39187;48.476;8.310;2024-02-28T03:12:00;31.43;;;19.07;;
53299;SDS011;39187;48.476;8.310;2024-02-28T03:14:25;25.93;;;18.77;;
53299;SDS011;39187;48.476;8.310;2024-02-28T03:16:55;29.67;;;18.03;;
53299;SDS011;39187;48.476;8.310;2024-02-28T03:19:21;26.37;;;17.33;;
53299;SDS011;39187;48.476;8.310;2024-02-28T03:21:47;28.20;;;19.13;;
53299;SDS011;39187;48.476;8.310;2024-02-28T03:24:13;25.13;;;17.20;;
53299;SDS011;39187;48.476;8.310;2024-02-28T03:26:38;25.53;;;17.73;;
53299;SDS011;39187;48.476;8.310;2024-02-28T03:29:03;26.90;;;18.60;;
53299;SDS011;39187;48.476;8.310;2024-02-28T03:31:29;22.53;;;17.60;;
53299;SDS011;39187;48.476;8.310;2024-02-28T03:33:54;23.07;;;17.00;;
53299;SDS011;39187;48.476;8.310;2024-02-28T03:36:20;24.07;;;18.63;;
53299;SDS011;39187;48.476;8.310;2024-02-28T03:38:45;23.20;;;17.07;;
53299;SDS011;39187;48.476;8.310;2024-02-28T03:41:11;27.20;;;18.77;;
53299;SDS011;39187;48.476;8.310;2024-02-28T03:43:36;28.87;;;18.73;;
53299;SDS011;39187;48.476;8.310;2024-02-28T03:46:02;25.63;;;19.50;;
53299;SDS011;39187;48.476;8.310;2024-02-28T03:48:28;27.60;;;18.33;;
53299;SDS011;39187;48.476;8.310;2024-02-28T03:50:53;30.57;;;20.10;;
53299;SDS011;39187;48.476;8.310;2024-02-28T03:53:18;32.53;;;18.80;;
53299;SDS011;39187;48.476;8.310;2024-02-28T03:55:44;36.63;;;18.93;;
53299;SDS011;39187;48.476;8.310;2024-02-28T03:58:10;25.17;;;18.43;;
53299;SDS011;39187;48.476;8.310;2024-02-28T04:00:35;29.50;;;19.83;;
53299;SDS011;39187;48.476;8.310;2024-02-28T04:03:01;33.40;;;18.30;;
53299;SDS011;39187;48.476;8.310;2024-02-28T04:05:28;30.07;;;19.87;;
53299;SDS011;39187;48.476;8.310;2024-02-28T04:07:54;27.63;;;19.77;;
53299;SDS011;39187;48.476;8.310;2024-02-28T04:10:20;31.10;;;20.17;;
53299;SDS011;39187;48.476;8.310;2024-02-28T04:12:46;32.23;;;19.67;;
53299;SDS011;39187;48.476;8.310;2024-02-28T04:15:11;33.40;;;20.20;;
53299;SDS011;39187;48.476;8.310;2024-02-28T04:17:38;30.03;;;21.07;;
53299;SDS011;39187;48.476;8.310;2024-02-28T04:20:07;28.27;;;18.87;;
53299;SDS011;39187;48.476;8.310;2024-02-28T04:22:36;27.40;;;17.83;;
53299;SDS011;39187;48.476;8.310;2024-02-28T04:25:02;33.73;;;21.63;;
53299;SDS011;39187;48.476;8.310;2024-02-28T04:27:33;31.57;;;18.73;;
53299;SDS011;39187;48.476;8.310;2024-02-28T04:29:58;26.30;;;18.50;;
53299;SDS011;39187;48.476;8.310;2024-02-28T04:32:24;25.27;;;17.97;;
53299;SDS011;39187;48.476;8.310;2024-02-28T04:34:49;29.73;;;18.73;;
53299;SDS011;39187;48.476;8.310;2024-02-28T04:37:15;28.50;;;18.37;;
53299;SDS011;39187;48.476;8.310;2024-02-28T04:39:40;27.73;;;19.40;;
53299;SDS011;39187;48.476;8.310;2024-02-28T04:42:06;26.60;;;19.07;;
53299;SDS011;39187;48.476;8.310;2024-02-28T04:44:32;25.23;;;18.07;;
53299;SDS011;39187;48.476;8.310;2024-02-28T04:46:58;30.57;;;20.03;;
53299;SDS011;39187;48.476;8.310;2024-02-28T04:49:23;33.27;;;19.90;;
53299;SDS011;39187;48.476;8.310;2024-02-28T04:51:49;29.50;;;17.93;;
53299;SDS011;39187;48.476;8.310;2024-02-28T04:54:14;29.93;;;17.13;;
53299;SDS011;39187;48.476;8.310;2024-02-28T04:56:40;26.10;;;17.47;;
53299;SDS011;39187;48.476;8.310;2024-02-28T04:59:06;33.10;;;18.50;;
53299;SDS011;39187;48.476;8.310;2024-02-28T05:01:38;27.33;;;18.50;;
53299;SDS011;39187;48.476;8.310;2024-02-28T05:04:05;31.13;;;19.13;;
53299;SDS011;39187;48.476;8.310;2024-02-28T05:06:31;27.67;;;19.50;;
53299;SDS011;39187;48.476;8.310;2024-02-28T05:08:57;29.47;;;18.57;;
53299;SDS011;39187;48.476;8.310;2024-02-28T05:11:22;25.43;;;18.00;;
53299;SDS011;39187;48.476;8.310;2024-02-28T05:13:48;34.03;;;20.17;;
53299;SDS011;39187;48.476;8.310;2024-02-28T05:16:14;24.33;;;18.40;;
53299;SDS011;39187;48.476;8.310;2024-02-28T05:18:40;29.37;;;18.47;;
53299;SDS011;39187;48.476;8.310;2024-02-28T05:21:05;31.10;;;19.17;;
53299;SDS011;39187;48.476;8.310;2024-02-28T05:23:31;25.70;;;19.03;;
53299;SDS011;39187;48.476;8.310;2024-02-28T05:25:56;27.87;;;18.43;;
53299;SDS011;39187;48.476;8.310;2024-02-28T05:28:22;28.67;;;18.53;;
53299;SDS011;39187;48.476;8.310;2024-02-28T05:30:48;27.33;;;19.57;;
53299;SDS011;39187;48.476;8.310;2024-02-28T05:33:15;28.97;;;17.97;;
53299;SDS011;39187;48.476;8.310;2024-02-28T05:35:40;29.03;;;18.90;;
53299;SDS011;39187;48.476;8.310;2024-02-28T05:38:06;30.43;;;19.20;;
53299;SDS011;39187;48.476;8.310;2024-02-28T05:40:31;27.50;;;18.00;;
53299;SDS011;39187;48.476;8.310;2024-02-28T05:42:57;24.60;;;17.97;;
53299;SDS011;39187;48.476;8.310;2024-02-28T05:45:22;29.63;;;20.33;;
53299;SDS011;39187;48.476;8.310;2024-02-28T05:47:48;29.60;;;18.37;;
53299;SDS011;39187;48.476;8.310;2024-02-28T05:50:14;27.37;;;18.33;;
53299;SDS011;39187;48.476;8.310;2024-02-28T05:52:41;27.77;;;17.90;;
53299;SDS011;39187;48.476;8.310;2024-02-28T05:55:07;21.27;;;16.30;;
53299;SDS011;39187;48.476;8.310;2024-02-28T05:57:33;25.00;;;17.53;;
53299;SDS011;39187;48.476;8.310;2024-02-28T05:59:59;23.90;;;17.83;;
53299;SDS011;39187;48.476;8.310;2024-02-28T06:02:24;32.20;;;17.60;;
53299;SDS011;39187;48.476;8.310;2024-02-28T06:04:50;37.37;;;17.80;;
53299;SDS011;39187;48.476;8.310;2024-02-28T06:07:16;31.77;;;17.77;;
53299;SDS011;39187;48.476;8.310;2024-02-28T06:09:41;26.93;;;17.60;;
53299;SDS011;39187;48.476;8.310;2024-02-28T06:12:07;27.77;;;17.50;;
53299;SDS011;39187;48.476;8.310;2024-02-28T06:14:32;24.10;;;16.20;;
53299;SDS011;39187;48.476;8.310;2024-02-28T06:16:58;27.60;;;17.60;;
53299;SDS011;39187;48.476;8.310;2024-02-28T06:19:23;22.63;;;16.70;;
53299;SDS011;39187;48.476;8.310;2024-02-28T06:21:49;25.30;;;18.03;;
53299;SDS011;39187;48.476;8.310;2024-02-28T06:24:15;27.87;;;17.57;;
53299;SDS011;39187;48.476;8.310;2024-02-28T06:26:40;25.23;;;19.07;;
53299;SDS011;39187;48.476;8.310;2024-02-28T06:29:07;25.43;;;18.47;;
53299;SDS011;39187;48.476;8.310;2024-02-28T06:31:33;27.97;;;17.57;;
53299;SDS011;39187;48.476;8.310;2024-02-28T06:33:58;30.07;;;16.70;;
53299;SDS011;39187;48.476;8.310;2024-02-28T06:36:24;29.23;;;18.20;;
53299;SDS011;39187;48.476;8.310;2024-02-28T06:38:49;24.77;;;17.17;;
53299;SDS011;39187;48.476;8.310;2024-02-28T06:41:15;25.13;;;17.13;;
53299;SDS011;39187;48.476;8.310;2024-02-28T06:43:41;24.33;;;16.73;;
53299;SDS011;39187;48.476;8.310;2024-02-28T06:46:07;26.07;;;17.93;;
53299;SDS011;39187;48.476;8.310;2024-02-28T06:48:32;27.00;;;17.87;;
53299;SDS011;39187;48.476;8.310;2024-02-28T06:50:58;32.00;;;18.57;;
53299;SDS011;39187;48.476;8.310;2024-02-28T06:53:23;23.43;;;17.03;;
53299;SDS011;39187;48.476;8.310;2024-02-28T06:55:49;22.80;;;16.60;;
53299;SDS011;39187;48.476;8.310;2024-02-28T06:58:15;28.07;;;18.60;;
53299;SDS011;39187;48.476;8.310;2024-02-28T07:00:40;24.97;;;16.43;;
53299;SDS011;39187;48.476;8.310;2024-02-28T07:03:06;31.10;;;19.60;;
53299;SDS011;39187;48.476;8.310;2024-02-28T07:05:32;34.67;;;20.43;;
53299;SDS011;39187;48.476;8.310;2024-02-28T07:07:58;29.33;;;19.33;;
53299;SDS011;39187;48.476;8.310;2024-02-28T07:10:25;25.07;;;17.30;;
53299;SDS011;39187;48.476;8.310;2024-02-28T07:12:50;24.83;;;18.33;;
53299;SDS011;39187;48.476;8.310;2024-02-28T07:15:16;23.80;;;16.87;;
53299;SDS011;39187;48.476;8.310;2024-02-28T07:17:44;34.60;;;17.90;;
53299;SDS011;39187;48.476;8.310;2024-02-28T07:20:10;26.47;;;17.93;;
53299;SDS011;39187;48.476;8.310;2024-02-28T07:22:37;30.13;;;18.60;;
53299;SDS011;39187;48.476;8.310;2024-02-28T07:25:03;32.83;;;20.20;;
53299;SDS011;39187;48.476;8.310;2024-02-28T07:27:29;32.73;;;19.93;;
53299;SDS011;39187;48.476;8.310;2024-02-28T07:29:55;26.20;;;18.57;;
53299;SDS011;39187;48.476;8.310;2024-02-28T07:32:21;28.87;;;19.60;;
53299;SDS011;39187;48.476;8.310;2024-02-28T07:34:46;30.23;;;18.77;;
53299;SDS011;39187;48.476;8.310;2024-02-28T07:37:12;25.13;;;16.37;;
53299;SDS011;39187;48.476;8.310;2024-02-28T07:39:39;22.43;;;16.20;;
53299;SDS011;39187;48.476;8.310;2024-02-28T07:42:04;26.97;;;18.27;;
53299;SDS011;39187;48.476;8.310;2024-02-28T07:44:30;25.80;;;17.43;;
53299;SDS011;39187;48.476;8.310;2024-02-28T07:46:56;25.53;;;16.73;;
53299;SDS011;39187;48.476;8.310;2024-02-28T07:49:25;21.00;;;15.57;;
53299;SDS011;39187;48.476;8.310;2024-02-28T07:51:51;17.50;;;14.93;;
53299;SDS011;39187;48.476;8.310;2024-02-28T07:54:17;20.23;;;15.13;;
53299;SDS011;39187;48.476;8.310;2024-02-28T07:56:43;21.10;;;14.30;;
53299;SDS011;39187;48.476;8.310;2024-02-28T07:59:09;18.90;;;14.27;;
53299;SDS011;39187;48.476;8.310;2024-02-28T08:01:34;16.20;;;12.97;;
53299;SDS011;39187;48.476;8.310;2024-02-28T08:04:00;22.37;;;14.40;;
53299;SDS011;39187;48.476;8.310;2024-02-28T08:06:26;17.57;;;13.90;;
53299;SDS011;39187;48.476;8.310;2024-02-28T08:08:52;19.53;;;13.83;;
53299;SDS011;39187;48.476;8.310;2024-02-28T08:11:17;15.23;;;13.30;;
53299;SDS011;39187;48.476;8.310;2024-02-28T08:13:44;14.43;;;12.97;;
53299;SDS011;39187;48.476;8.310;2024-02-28T08:16:09;17.10;;;14.57;;
53299;SDS011;39187;48.476;8.310;2024-02-28T08:18:35;20.27;;;12.70;;
53299;SDS011;39187;48.476;8.310;2024-02-28T08:21:00;19.23;;;13.77;;
53299;SDS011;39187;48.476;8.310;2024-02-28T08:23:28;22.80;;;14.63;;
53299;SDS011;39187;48.476;8.310;2024-02-28T08:25:54;14.27;;;12.83;;
53299;SDS011;39187;48.476;8.310;2024-02-28T08:28:20;16.70;;;14.10;;
53299;SDS011;39187;48.476;8.310;2024-02-28T08:30:45;16.47;;;12.30;;
53299;SDS011;39187;48.476;8.310;2024-02-28T08:33:11;16.17;;;12.60;;
53299;SDS011;39187;48.476;8.310;2024-02-28T08:35:36;15.53;;;12.73;;
53299;SDS011;39187;48.476;8.310;2024-02-28T08:38:02;12.93;;;11.00;;
53299;SDS011;39187;48.476;8.310;2024-02-28T08:40:28;13.50;;;12.10;;
53299;SDS011;39187;48.476;8.310;2024-02-28T08:42:57;14.97;;;12.80;;
53299;SDS011;39187;48.476;8.310;2024-02-28T08:45:22;13.10;;;11.60;;
53299;SDS011;39187;48.476;8.310;2024-02-28T08:47:48;14.70;;;11.37;;
53299;SDS011;39187;48.476;8.310;2024-02-28T08:50:14;14.70;;;12.40;;
53299;SDS011;39187;48.476;8.310;2024-02-28T08:52:39;15.20;;;11.63;;
53299;SDS011;39187;48.476;8.310;2024-02-28T08:55:05;17.13;;;13.70;;
53299;SDS011;39187;48.476;8.310;2024-02-28T08:57:31;16.80;;;10.93;;
53299;SDS011;39187;48.476;8.310;2024-02-28T08:59:56;11.80;;;10.60;;
53299;SDS011;39187;48.476;8.310;2024-02-28T09:02:22;11.83;;;10.63;;
53299;SDS011;39187;48.476;8.310;2024-02-28T09:04:47;13.20;;;10.90;;
53299;SDS011;39187;48.476;8.310;2024-02-28T09:07:19;10.80;;;9.70;;
53299;SDS011;39187;48.476;8.310;2024-02-28T09:09:45;13.70;;;12.20;;
53299;SDS011;39187;48.476;8.310;2024-02-28T09:12:11;14.03;;;12.20;;
53299;SDS011;39187;48.476;8.310;2024-02-28T09:14:36;12.60;;;11.30;;
53299;SDS011;39187;48.476;8.310;2024-02-28T09:17:03;10.77;;;9.77;;
53299;SDS011;39187;48.476;8.310;2024-02-28T09:19:29;11.90;;;10.53;;
53299;SDS011;39187;48.476;8.310;2024-02-28T09:21:55;13.13;;;11.77;;
53299;SDS011;39187;48.476;8.310;2024-02-28T09:24:22;13.37;;;10.30;;
53299;SDS011;39187;48.476;8.310;2024-02-28T09:26:48;14.83;;;11.70;;
53299;SDS011;39187;48.476;8.310;2024-02-28T09:29:14;11.53;;;10.43;;
53299;SDS011;39187;48.476;8.310;2024-02-28T09:31:39;11.17;;;9.40;;
53299;SDS011;39187;48.476;8.310;2024-02-28T09:34:05;11.43;;;10.30;;
53299;SDS011;39187;48.476;8.310;2024-02-28T09:36:33;9.67;;;8.80;;
53299;SDS011;39187;48.476;8.310;2024-02-28T09:39:05;12.67;;;9.97;;
53299;SDS011;39187;48.476;8.310;2024-02-28T09:41:31;11.50;;;10.50;;
53299;SDS011;39187;48.476;8.310;2024-02-28T09:43:56;10.83;;;9.73;;
53299;SDS011;39187;48.476;8.310;2024-02-28T09:46:23;10.87;;;9.67;;
53299;SDS011;39187;48.476;8.310;2024-02-28T09:48:49;10.93;;;9.93;;
53299;SDS011;39187;48.476;8.310;2024-02-28T09:51:16;24.30;;;10.50;;
53299;SDS011;39187;48.476;8.310;2024-02-28T09:53:43;10.13;;;9.40;;
53299;SDS011;39187;48.476;8.310;2024-02-28T09:56:08;9.10;;;8.37;;
53299;SDS011;39187;48.476;8.310;2024-02-28T09:58:35;10.63;;;9.70;;
53299;SDS011;39187;48.476;8.310;2024-02-28T10:01:03;10.07;;;9.20;;
53299;SDS011;39187;48.476;8.310;2024-02-28T10:03:34;10.07;;;8.77;;
53299;SDS011;39187;48.476;8.310;2024-02-28T10:06:01;9.77;;;8.83;;
53299;SDS011;39187;48.476;8.310;2024-02-28T10:08:27;9.27;;;8.57;;
53299;SDS011;39187;48.476;8.310;2024-02-28T10:10:54;9.57;;;8.60;;
53299;SDS011;39187;48.476;8.310;2024-02-28T10:13:21;10.17;;;8.33;;
53299;SDS011;39187;48.476;8.310;2024-02-28T10:15:49;9.43;;;8.47;;
53299;SDS011;39187;48.476;8.310;2024-02-28T10:18:15;8.63;;;8.00;;
53299;SDS011;39187;48.476;8.310;2024-02-28T10:20:41;8.47;;;7.80;;
53299;SDS011;39187;48.476;8.310;2024-02-28T10:23:07;8.20;;;7.53;;
53299;SDS011;39187;48.476;8.310;2024-02-28T10:25:45;8.13;;;7.50;;
53299;SDS011;39187;48.476;8.310;2024-02-28T10:28:11;7.83;;;7.30;;
53299;SDS011;39187;48.476;8.310;2024-02-28T10:30:42;7.87;;;7.30;;
53299;SDS011;39187;48.476;8.310;2024-02-28T10:33:14;7.13;;;6.70;;
53299;SDS011;39187;48.476;8.310;2024-02-28T10:35:43;7.23;;;6.70;;
53299;SDS011;39187;48.476;8.310;2024-02-28T10:38:10;8.13;;;7.43;;
53299;SDS011;39187;48.476;8.310;2024-02-28T10:40:36;10.40;;;8.00;;
53299;SDS011;39187;48.476;8.310;2024-02-28T10:43:02;8.93;;;7.90;;
53299;SDS011;39187;48.476;8.310;2024-02-28T10:45:30;7.73;;;7.30;;
53299;SDS011;39187;48.476;8.310;2024-02-28T10:47:56;13.23;;;8.50;;
53299;SDS011;39187;48.476;8.310;2024-02-28T10:50:22;8.10;;;7.50;;
53299;SDS011;39187;48.476;8.310;2024-02-28T10:52:48;6.80;;;6.40;;
53299;SDS011;39187;48.476;8.310;2024-02-28T10:55:18;7.97;;;7.37;;
53299;SDS011;39187;48.476;8.310;2024-02-28T10:57:58;7.90;;;7.30;;
53299;SDS011;39187;48.476;8.310;2024-02-28T11:00:29;7.90;;;7.30;;
53299;SDS011;39187;48.476;8.310;2024-02-28T11:02:56;7.33;;;6.80;;
53299;SDS011;39187;48.476;8.310;2024-02-28T11:05:23;7.10;;;6.60;;
53299;SDS011;39187;48.476;8.310;2024-02-28T11:07:51;7.37;;;6.80;;
53299;SDS011;39187;48.476;8.310;2024-02-28T11:10:17;6.67;;;6.07;;
53299;SDS011;39187;48.476;8.310;2024-02-28T11:12:43;6.60;;;6.17;;
53299;SDS011;39187;48.476;8.310;2024-02-28T11:15:19;6.53;;;6.00;;
53299;SDS011;39187;48.476;8.310;2024-02-28T11:17:45;6.63;;;6.13;;
53299;SDS011;39187;48.476;8.310;2024-02-28T11:20:11;6.97;;;6.60;;
53299;SDS011;39187;48.476;8.310;2024-02-28T11:22:39;5.53;;;5.20;;
53299;SDS011;39187;48.476;8.310;2024-02-28T11:25:05;6.00;;;5.67;;
53299;SDS011;39187;48.476;8.310;2024-02-28T11:27:31;6.93;;;6.53;;
53299;SDS011;39187;48.476;8.310;2024-02-28T11:29:57;5.57;;;5.27;;
53299;SDS011;39187;48.476;8.310;2024-02-28T11:32:25;6.40;;;6.00;;
53299;SDS011;39187;48.476;8.310;2024-02-28T11:34:51;6.87;;;6.47;;
53299;SDS011;39187;48.476;8.310;2024-02-28T11:37:17;5.80;;;5.50;;
53299;SDS011;39187;48.476;8.310;2024-02-28T11:39:46;6.87;;;6.27;;
53299;SDS011;39187;48.476;8.310;2024-02-28T11:42:13;5.40;;;5.10;;
53299;SDS011;39187;48.476;8.310;2024-02-28T11:44:40;5.93;;;5.43;;
53299;SDS011;39187;48.476;8.310;2024-02-28T11:47:09;4.93;;;4.63;;
53299;SDS011;39187;48.476;8.310;2024-02-28T11:49:36;5.83;;;5.50;;
53299;SDS011;39187;48.476;8.310;2024-02-28T11:52:04;6.17;;;5.67;;
53299;SDS011;39187;48.476;8.310;2024-02-28T11:54:31;15.97;;;5.37;;
53299;SDS011;39187;48.476;8.310;2024-02-28T11:56:56;5.90;;;5.40;;
53299;SDS011;39187;48.476;8.310;2024-02-28T11:59:22;5.50;;;5.00;;
53299;SDS011;39187;48.476;8.310;2024-02-28T12:01:48;5.70;;;5.40;;
53299;SDS011;39187;48.476;8.310;2024-02-28T12:04:14;5.70;;;5.40;;
53299;SDS011;39187;48.476;8.310;2024-02-28T12:06:39;5.17;;;4.87;;
53299;SDS011;39187;48.476;8.310;2024-02-28T12:09:09;5.90;;;5.60;;
53299;SDS011;39187;48.476;8.310;2024-02-28T12:11:37;6.00;;;5.53;;
53299;SDS011;39187;48.476;8.310;2024-02-28T12:14:03;6.50;;;6.10;;
53299;SDS011;39187;48.476;8.310;2024-02-28T12:16:32;5.70;;;5.40;;
53299;SDS011;39187;48.476;8.310;2024-02-28T12:18:57;5.97;;;5.33;;
53299;SDS011;39187;48.476;8.310;2024-02-28T12:21:23;5.40;;;5.00;;
53299;SDS011;39187;48.476;8.310;2024-02-28T12:23:49;4.63;;;4.30;;
53299;SDS011;39187;48.476;8.310;2024-02-28T12:26:18;5.73;;;5.43;;
53299;SDS011;39187;48.476;8.310;2024-02-28T12:28:44;5.30;;;5.10;;
53299;SDS011;39187;48.476;8.310;2024-02-28T12:31:10;5.97;;;5.43;;
53299;SDS011;39187;48.476;8.310;2024-02-28T12:33:37;5.23;;;4.93;;
53299;SDS011;39187;48.476;8.310;2024-02-28T12:36:03;5.10;;;4.60;;
53299;SDS011;39187;48.476;8.310;2024-02-28T12:38:29;5.57;;;5.27;;
53299;SDS011;39187;48.476;8.310;2024-02-28T12:40:55;5.67;;;5.40;;
53299;SDS011;39187;48.476;8.310;2024-02-28T12:43:21;5.37;;;4.97;;
53299;SDS011;39187;48.476;8.310;2024-02-28T12:45:47;5.40;;;5.00;;
53299;SDS011;39187;48.476;8.310;2024-02-28T12:48:12;6.33;;;6.00;;
53299;SDS011;39187;48.476;8.310;2024-02-28T12:50:38;5.47;;;5.07;;
53299;SDS011;39187;48.476;8.310;2024-02-28T12:53:03;5.97;;;5.60;;
53299;SDS011;39187;48.476;8.310;2024-02-28T12:55:29;5.70;;;5.30;;
53299;SDS011;39187;48.476;8.310;2024-02-28T12:57:55;7.07;;;6.60;;
53299;SDS011;39187;48.476;8.310;2024-02-28T13:00:20;6.20;;;5.87;;
53299;SDS011;39187;48.476;8.310;2024-02-28T13:02:46;7.17;;;6.57;;
53299;SDS011;39187;48.476;8.310;2024-02-28T13:05:12;6.63;;;6.13;;
53299;SDS011;39187;48.476;8.310;2024-02-28T13:07:38;5.73;;;5.43;;
53299;SDS011;39187;48.476;8.310;2024-02-28T13:10:04;6.77;;;6.27;;
53299;SDS011;39187;48.476;8.310;2024-02-28T13:12:31;7.90;;;6.50;;
53299;SDS011;39187;48.476;8.310;2024-02-28T13:14:57;6.37;;;6.07;;
53299;SDS011;39187;48.476;8.310;2024-02-28T13:17:23;7.13;;;6.27;;
53299;SDS011;39187;48.476;8.310;2024-02-28T13:19:49;6.60;;;6.10;;
53299;SDS011;39187;48.476;8.310;2024-02-28T13:22:14;6.57;;;5.97;;
53299;SDS011;39187;48.476;8.310;2024-02-28T13:24:40;6.67;;;6.30;;
53299;SDS011;39187;48.476;8.310;2024-02-28T13:27:05;6.07;;;5.57;;
53299;SDS011;39187;48.476;8.310;2024-02-28T13:29:31;6.63;;;6.30;;
53299;SDS011;39187;48.476;8.310;2024-02-28T13:31:57;7.70;;;7.23;;
53299;SDS011;39187;48.476;8.310;2024-02-28T13:34:23;8.20;;;7.57;;
53299;SDS011;39187;48.476;8.310;2024-02-28T13:36:49;8.10;;;7.50;;
53299;SDS011;39187;48.476;8.310;2024-02-28T13:39:15;8.20;;;7.03;;
53299;SDS011;39187;48.476;8.310;2024-02-28T13:41:41;6.90;;;6.30;;
53299;SDS011;39187;48.476;8.310;2024-02-28T13:44:07;7.90;;;7.17;;
53299;SDS011;39187;48.476;8.310;2024-02-28T13:46:34;8.80;;;8.10;;
53299;SDS011;39187;48.476;8.310;2024-02-28T13:49:00;8.57;;;7.87;;
53299;SDS011;39187;48.476;8.310;2024-02-28T13:51:25;15.93;;;13.07;;
53299;SDS011;39187;48.476;8.310;2024-02-28T13:53:51;10.47;;;9.60;;
53299;SDS011;39187;48.476;8.310;2024-02-28T13:56:20;8.93;;;8.00;;
53299;SDS011;39187;48.476;8.310;2024-02-28T13:58:45;8.83;;;8.23;;
53299;SDS011;39187;48.476;8.310;2024-02-28T14:01:12;10.53;;;8.20;;
53299;SDS011;39187;48.476;8.310;2024-02-28T14:03:37;10.43;;;9.30;;
53299;SDS011;39187;48.476;8.310;2024-02-28T14:06:03;9.37;;;8.63;;
53299;SDS011;39187;48.476;8.310;2024-02-28T14:08:29;9.30;;;8.60;;
53299;SDS011;39187;48.476;8.310;2024-02-28T14:10:55;8.87;;;8.10;;
53299;SDS011;39187;48.476;8.310;2024-02-28T14:13:21;8.17;;;7.20;;
53299;SDS011;39187;48.476;8.310;2024-02-28T14:15:46;9.80;;;8.80;;
53299;SDS011;39187;48.476;8.310;2024-02-28T14:18:12;8.60;;;7.20;;
53299;SDS011;39187;48.476;8.310;2024-02-28T14:20:38;9.30;;;8.43;;
53299;SDS011;39187;48.476;8.310;2024-02-28T14:23:04;9.80;;;9.10;;